sensor_id;sensor_type;location;lat;lon;timestamp;pressure;altitude;pressure_sealevel;temperature;humidity
76815;BME280;65768;49.906;19.384;2022-12-29T00:01:08;98287.89;;;4.89;53.24
76815;BME280;65768;49.906;19.384;2022-12-29T00:03:36;98288.48;;;5.00;53.19
76815;BME280;65768;49.906;19.384;2022-12-29T00:06:04;98285.67;;;4.97;53.38
76815;BME280;65768;49.906;19.384;2022-12-29T00:08:32;98284.84;;;4.92;53.92
76815;BME280;65768;49.906;19.384;2022-12-29T00:11:12;98293.42;;;4.96;53.52
76815;BME280;65768;49.906;19.384;2022-12-29T00:13:41;98288.86;;;5.01;53.10
76815;BME280;65768;49.906;19.384;2022-12-29T00:16:29;98290.14;;;5.03;53.17
76815;BME280;65768;49.906;19.384;2022-12-29T00:18:58;98288.73;;;5.02;53.57
76815;BME280;65768;49.906;19.384;2022-12-29T00:21:26;98293.05;;;4.96;53.94
76815;BME280;65768;49.906;19.384;2022-12-29T00:24:18;98287.66;;;4.86;54.57
76815;BME280;65768;49.906;19.384;2022-12-29T00:26:56;98292.86;;;4.80;54.13
76815;BME280;65768;49.906;19.384;2022-12-29T00:29:44;98301.90;;;4.76;54.05
76815;BME280;65768;49.906;19.384;2022-12-29T00:32:31;98298.59;;;4.67;54.92
76815;BME280;65768;49.906;19.384;2022-12-29T00:35:28;98289.32;;;4.56;54.91
76815;BME280;65768;49.906;19.384;2022-12-29T00:38:02;98298.12;;;4.56;54.57
76815;BME280;65768;49.906;19.384;2022-12-29T00:40:50;98299.83;;;4.48;55.09
76815;BME280;65768;49.906;19.384;2022-12-29T00:43:36;98300.05;;;4.43;55.34
76815;BME280;65768;49.906;19.384;2022-12-29T00:46:23;98303.30;;;4.35;55.71
76815;BME280;65768;49.906;19.384;2022-12-29T00:48:51;98303.98;;;4.29;55.88
76815;BME280;65768;49.906;19.384;2022-12-29T00:51:37;98296.83;;;4.26;56.03
76815;BME280;65768;49.906;19.384;2022-12-29T00:54:05;98296.79;;;4.18;56.55
76815;BME280;65768;49.906;19.384;2022-12-29T00:56:33;98292.35;;;4.26;56.44
76815;BME280;65768;49.906;19.384;2022-12-29T00:59:06;98290.83;;;4.47;55.10
76815;BME280;65768;49.906;19.384;2022-12-29T01:01:36;98282.41;;;4.63;55.24
76815;BME280;65768;49.906;19.384;2022-12-29T01:04:05;98287.33;;;4.59;55.62
76815;BME280;65768;49.906;19.384;2022-12-29T01:06:35;98281.25;;;4.51;55.73
76815;BME280;65768;49.906;19.384;2022-12-29T01:09:04;98274.74;;;4.53;55.64
76815;BME280;65768;49.906;19.384;2022-12-29T01:11:51;98271.30;;;4.61;55.55
76815;BME280;65768;49.906;19.384;2022-12-29T01:14:20;98273.98;;;4.64;56.08
76815;BME280;65768;49.906;19.384;2022-12-29T01:16:48;98272.20;;;4.47;56.47
76815;BME280;65768;49.906;19.384;2022-12-29T01:19:17;98266.59;;;4.44;56.62
76815;BME280;65768;49.906;19.384;2022-12-29T01:21:46;98264.45;;;4.55;56.40
76815;BME280;65768;49.906;19.384;2022-12-29T01:24:16;98265.77;;;4.73;55.85
76815;BME280;65768;49.906;19.384;2022-12-29T01:26:45;98259.89;;;4.74;55.84
76815;BME280;65768;49.906;19.384;2022-12-29T01:29:13;98254.64;;;4.70;56.26
76815;BME280;65768;49.906;19.384;2022-12-29T01:31:42;98251.04;;;4.78;55.90
76815;BME280;65768;49.906;19.384;2022-12-29T01:34:10;98250.70;;;4.72;56.49
76815;BME280;65768;49.906;19.384;2022-12-29T01:36:38;98259.14;;;4.70;56.42
76815;BME280;65768;49.906;19.384;2022-12-29T01:39:06;98257.57;;;4.71;56.40
76815;BME280;65768;49.906;19.384;2022-12-29T01:41:34;98254.83;;;4.71;56.24
76815;BME280;65768;49.906;19.384;2022-12-29T01:44:02;98262.18;;;4.76;56.21
76815;BME280;65768;49.906;19.384;2022-12-29T01:46:39;98259.34;;;4.79;56.22
76815;BME280;65768;49.906;19.384;2022-12-29T01:51:39;98251.92;;;4.95;55.97
76815;BME280;65768;49.906;19.384;2022-12-29T01:54:12;98253.21;;;4.98;56.13
76815;BME280;65768;49.906;19.384;2022-12-29T01:56:42;98257.08;;;4.94;56.53
76815;BME280;65768;49.906;19.384;2022-12-29T01:59:15;98260.38;;;4.94;56.31
76815;BME280;65768;49.906;19.384;2022-12-29T02:01:45;98267.67;;;5.04;55.98
76815;BME280;65768;49.906;19.384;2022-12-29T02:04:13;98261.63;;;5.04;56.26
76815;BME280;65768;49.906;19.384;2022-12-29T02:06:47;98260.55;;;5.16;55.29
76815;BME280;65768;49.906;19.384;2022-12-29T02:09:18;98256.03;;;5.39;54.48
76815;BME280;65768;49.906;19.384;2022-12-29T02:11:46;98251.75;;;5.50;53.77
76815;BME280;65768;49.906;19.384;2022-12-29T02:14:15;98245.39;;;5.51;54.42
76815;BME280;65768;49.906;19.384;2022-12-29T02:17:15;98242.31;;;5.37;55.43
76815;BME280;65768;49.906;19.384;2022-12-29T02:20:20;98241.02;;;5.40;54.64
76815;BME280;65768;49.906;19.384;2022-12-29T02:32:05;98224.02;;;5.54;54.34
76815;BME280;65768;49.906;19.384;2022-12-29T02:37:17;98219.79;;;5.59;53.56
76815;BME280;65768;49.906;19.384;2022-12-29T02:39:57;98208.66;;;5.39;56.22
76815;BME280;65768;49.906;19.384;2022-12-29T02:43:13;98209.68;;;5.05;56.78
76815;BME280;65768;49.906;19.384;2022-12-29T02:45:41;98203.54;;;4.86;57.07
76815;BME280;65768;49.906;19.384;2022-12-29T02:48:32;98198.89;;;4.86;56.54
76815;BME280;65768;49.906;19.384;2022-12-29T02:51:07;98201.52;;;4.81;56.59
76815;BME280;65768;49.906;19.384;2022-12-29T02:53:37;98199.42;;;4.79;56.38
76815;BME280;65768;49.906;19.384;2022-12-29T02:56:25;98197.80;;;4.92;55.97
76815;BME280;65768;49.906;19.384;2022-12-29T02:58:53;98190.36;;;4.91;56.00
76815;BME280;65768;49.906;19.384;2022-12-29T03:12:32;98176.05;;;4.77;56.90
76815;BME280;65768;49.906;19.384;2022-12-29T03:15:33;98181.81;;;4.87;56.70
76815;BME280;65768;49.906;19.384;2022-12-29T03:18:56;98180.55;;;4.78;57.97
76815;BME280;65768;49.906;19.384;2022-12-29T03:21:29;98179.89;;;4.79;57.82
76815;BME280;65768;49.906;19.384;2022-12-29T03:24:20;98172.11;;;5.19;56.98
76815;BME280;65768;49.906;19.384;2022-12-29T03:26:51;98169.86;;;5.18;56.60
76815;BME280;65768;49.906;19.384;2022-12-29T03:29:21;98164.51;;;5.35;56.03
76815;BME280;65768;49.906;19.384;2022-12-29T03:31:50;98169.29;;;5.50;55.68
76815;BME280;65768;49.906;19.384;2022-12-29T03:34:20;98175.70;;;5.60;55.20
76815;BME280;65768;49.906;19.384;2022-12-29T03:37:01;98171.14;;;5.56;55.70
76815;BME280;65768;49.906;19.384;2022-12-29T03:39:30;98169.17;;;5.70;54.61
76815;BME280;65768;49.906;19.384;2022-12-29T03:42:01;98157.48;;;5.84;54.35
76815;BME280;65768;49.906;19.384;2022-12-29T03:44:32;98156.73;;;5.80;54.69
76815;BME280;65768;49.906;19.384;2022-12-29T03:47:00;98159.05;;;5.85;54.50
76815;BME280;65768;49.906;19.384;2022-12-29T03:49:28;98170.83;;;5.85;54.51
76815;BME280;65768;49.906;19.384;2022-12-29T03:51:56;98161.88;;;5.69;55.30
76815;BME280;65768;49.906;19.384;2022-12-29T03:54:25;98164.50;;;5.62;55.56
76815;BME280;65768;49.906;19.384;2022-12-29T03:56:53;98173.32;;;5.52;55.67
76815;BME280;65768;49.906;19.384;2022-12-29T03:59:21;98180.60;;;5.36;56.56
76815;BME280;65768;49.906;19.384;2022-12-29T04:01:49;98175.18;;;5.33;56.19
76815;BME280;65768;49.906;19.384;2022-12-29T04:04:17;98168.06;;;5.32;56.43
76815;BME280;65768;49.906;19.384;2022-12-29T04:06:45;98171.52;;;5.31;56.35
76815;BME280;65768;49.906;19.384;2022-12-29T04:09:13;98175.05;;;5.36;56.48
76815;BME280;65768;49.906;19.384;2022-12-29T04:11:41;98174.58;;;5.20;57.25
76815;BME280;65768;49.906;19.384;2022-12-29T04:14:09;98168.88;;;5.20;57.20
76815;BME280;65768;49.906;19.384;2022-12-29T04:16:37;98167.52;;;5.14;57.65
76815;BME280;65768;49.906;19.384;2022-12-29T04:19:07;98163.34;;;5.12;57.86
76815;BME280;65768;49.906;19.384;2022-12-29T04:21:35;98162.34;;;4.98;58.49
76815;BME280;65768;49.906;19.384;2022-12-29T04:24:04;98157.02;;;5.07;57.90
76815;BME280;65768;49.906;19.384;2022-12-29T04:26:34;98159.09;;;4.98;58.73
76815;BME280;65768;49.906;19.384;2022-12-29T04:29:02;98163.48;;;4.86;59.09
76815;BME280;65768;49.906;19.384;2022-12-29T04:31:30;98164.27;;;4.83;58.83
76815;BME280;65768;49.906;19.384;2022-12-29T04:33:58;98162.23;;;4.83;58.83
76815;BME280;65768;49.906;19.384;2022-12-29T04:36:28;98155.88;;;4.79;58.90
76815;BME280;65768;49.906;19.384;2022-12-29T04:38:56;98157.43;;;4.71;59.13
76815;BME280;65768;49.906;19.384;2022-12-29T04:41:25;98164.55;;;4.72;58.88
76815;BME280;65768;49.906;19.384;2022-12-29T04:43:53;98166.58;;;5.09;57.68
76815;BME280;65768;49.906;19.384;2022-12-29T04:46:21;98168.04;;;5.21;57.44
76815;BME280;65768;49.906;19.384;2022-12-29T04:48:49;98167.15;;;5.21;57.36
76815;BME280;65768;49.906;19.384;2022-12-29T04:51:17;98165.13;;;5.32;57.50
76815;BME280;65768;49.906;19.384;2022-12-29T04:53:45;98161.39;;;5.44;57.28
76815;BME280;65768;49.906;19.384;2022-12-29T04:56:13;98148.77;;;5.43;57.55
76815;BME280;65768;49.906;19.384;2022-12-29T04:58:41;98150.50;;;5.44;57.62
76815;BME280;65768;49.906;19.384;2022-12-29T05:01:09;98153.05;;;5.33;57.90
76815;BME280;65768;49.906;19.384;2022-12-29T05:03:37;98151.50;;;5.16;58.67
76815;BME280;65768;49.906;19.384;2022-12-29T05:06:05;98151.64;;;5.06;59.09
76815;BME280;65768;49.906;19.384;2022-12-29T05:08:33;98151.75;;;5.11;58.94
76815;BME280;65768;49.906;19.384;2022-12-29T05:11:01;98147.08;;;5.18;58.71
76815;BME280;65768;49.906;19.384;2022-12-29T05:13:29;98138.88;;;5.32;58.17
76815;BME280;65768;49.906;19.384;2022-12-29T05:15:57;98133.19;;;5.43;58.19
76815;BME280;65768;49.906;19.384;2022-12-29T05:18:25;98135.48;;;5.44;58.27
76815;BME280;65768;49.906;19.384;2022-12-29T05:20:53;98136.61;;;5.23;59.19
76815;BME280;65768;49.906;19.384;2022-12-29T05:23:21;98129.38;;;4.98;59.42
76815;BME280;65768;49.906;19.384;2022-12-29T05:25:49;98145.59;;;4.98;59.91
76815;BME280;65768;49.906;19.384;2022-12-29T05:28:17;98147.48;;;4.89;60.18
76815;BME280;65768;49.906;19.384;2022-12-29T05:30:48;98144.70;;;5.05;59.65
76815;BME280;65768;49.906;19.384;2022-12-29T05:33:18;98140.09;;;5.07;59.49
76815;BME280;65768;49.906;19.384;2022-12-29T05:35:46;98135.45;;;5.16;59.34
76815;BME280;65768;49.906;19.384;2022-12-29T05:38:14;98136.23;;;5.13;59.61
76815;BME280;65768;49.906;19.384;2022-12-29T05:40:43;98137.69;;;5.16;59.63
76815;BME280;65768;49.906;19.384;2022-12-29T05:43:11;98138.20;;;5.15;59.47
76815;BME280;65768;49.906;19.384;2022-12-29T05:45:39;98133.08;;;5.36;58.42
76815;BME280;65768;49.906;19.384;2022-12-29T05:48:09;98127.59;;;5.57;57.72
76815;BME280;65768;49.906;19.384;2022-12-29T05:50:37;98122.08;;;5.58;57.69
76815;BME280;65768;49.906;19.384;2022-12-29T05:53:05;98118.08;;;5.48;58.10
76815;BME280;65768;49.906;19.384;2022-12-29T05:55:35;98116.51;;;5.47;58.29
76815;BME280;65768;49.906;19.384;2022-12-29T05:58:04;98109.56;;;5.36;58.45
76815;BME280;65768;49.906;19.384;2022-12-29T06:00:33;98103.65;;;5.43;57.94
76815;BME280;65768;49.906;19.384;2022-12-29T06:03:02;98105.52;;;5.51;57.81
76815;BME280;65768;49.906;19.384;2022-12-29T06:05:30;98097.50;;;5.48;58.14
76815;BME280;65768;49.906;19.384;2022-12-29T06:07:58;98098.72;;;5.57;57.63
76815;BME280;65768;49.906;19.384;2022-12-29T06:10:27;98099.34;;;5.54;57.78
76815;BME280;65768;49.906;19.384;2022-12-29T06:12:55;98102.73;;;5.60;57.63
76815;BME280;65768;49.906;19.384;2022-12-29T06:15:23;98104.90;;;5.65;57.37
76815;BME280;65768;49.906;19.384;2022-12-29T06:17:53;98103.65;;;5.62;57.68
76815;BME280;65768;49.906;19.384;2022-12-29T06:20:21;98109.09;;;5.48;57.98
76815;BME280;65768;49.906;19.384;2022-12-29T06:22:49;98110.54;;;5.51;57.95
76815;BME280;65768;49.906;19.384;2022-12-29T06:25:17;98114.95;;;5.47;58.15
76815;BME280;65768;49.906;19.384;2022-12-29T06:27:45;98117.05;;;5.48;57.97
76815;BME280;65768;49.906;19.384;2022-12-29T06:30:13;98123.35;;;5.52;58.05
76815;BME280;65768;49.906;19.384;2022-12-29T06:32:42;98126.60;;;5.41;58.18
76815;BME280;65768;49.906;19.384;2022-12-29T06:35:10;98123.66;;;5.32;58.52
76815;BME280;65768;49.906;19.384;2022-12-29T06:37:39;98124.81;;;5.29;58.70
76815;BME280;65768;49.906;19.384;2022-12-29T06:40:07;98131.56;;;5.30;59.02
76815;BME280;65768;49.906;19.384;2022-12-29T06:42:35;98127.07;;;5.21;59.20
76815;BME280;65768;49.906;19.384;2022-12-29T06:45:04;98119.74;;;5.26;59.24
76815;BME280;65768;49.906;19.384;2022-12-29T06:47:32;98116.35;;;5.29;59.25
76815;BME280;65768;49.906;19.384;2022-12-29T06:50:00;98113.40;;;5.29;59.47
76815;BME280;65768;49.906;19.384;2022-12-29T06:52:28;98108.95;;;5.30;59.67
76815;BME280;65768;49.906;19.384;2022-12-29T06:54:56;98105.17;;;5.32;59.58
76815;BME280;65768;49.906;19.384;2022-12-29T06:57:25;98104.09;;;5.29;59.73
76815;BME280;65768;49.906;19.384;2022-12-29T06:59:54;98102.27;;;5.52;59.43
76815;BME280;65768;49.906;19.384;2022-12-29T07:02:48;98093.92;;;5.70;59.27
76815;BME280;65768;49.906;19.384;2022-12-29T07:05:19;98096.71;;;5.61;59.70
76815;BME280;65768;49.906;19.384;2022-12-29T07:07:48;98092.98;;;5.75;59.50
76815;BME280;65768;49.906;19.384;2022-12-29T07:10:16;98091.73;;;6.01;58.51
76815;BME280;65768;49.906;19.384;2022-12-29T07:12:44;98092.98;;;6.04;58.79
76815;BME280;65768;49.906;19.384;2022-12-29T07:15:12;98093.63;;;6.12;58.23
76815;BME280;65768;49.906;19.384;2022-12-29T07:17:40;98090.86;;;6.23;58.14
76815;BME280;65768;49.906;19.384;2022-12-29T07:20:09;98088.17;;;6.17;58.35
76815;BME280;65768;49.906;19.384;2022-12-29T07:22:37;98082.14;;;6.30;58.00
76815;BME280;65768;49.906;19.384;2022-12-29T07:25:06;98083.63;;;6.37;57.83
76815;BME280;65768;49.906;19.384;2022-12-29T07:27:35;98085.34;;;6.47;57.22
76815;BME280;65768;49.906;19.384;2022-12-29T07:30:03;98084.10;;;6.58;57.12
76815;BME280;65768;49.906;19.384;2022-12-29T07:32:34;98084.50;;;6.61;57.04
76815;BME280;65768;49.906;19.384;2022-12-29T07:35:02;98072.58;;;6.63;56.81
76815;BME280;65768;49.906;19.384;2022-12-29T07:37:31;98069.27;;;6.63;57.32
76815;BME280;65768;49.906;19.384;2022-12-29T07:40:00;98068.64;;;6.80;56.16
76815;BME280;65768;49.906;19.384;2022-12-29T07:42:29;98064.23;;;6.87;56.27
76815;BME280;65768;49.906;19.384;2022-12-29T07:44:57;98056.67;;;6.92;55.83
76815;BME280;65768;49.906;19.384;2022-12-29T07:47:26;98061.08;;;7.00;56.04
76815;BME280;65768;49.906;19.384;2022-12-29T07:49:54;98059.95;;;7.21;54.63
76815;BME280;65768;49.906;19.384;2022-12-29T07:52:22;98068.40;;;7.34;54.61
76815;BME280;65768;49.906;19.384;2022-12-29T07:54:50;98068.92;;;7.34;54.43
76815;BME280;65768;49.906;19.384;2022-12-29T07:57:18;98072.31;;;7.42;53.81
76815;BME280;65768;49.906;19.384;2022-12-29T07:59:46;98071.70;;;7.51;53.88
76815;BME280;65768;49.906;19.384;2022-12-29T08:02:14;98065.73;;;7.44;53.83
76815;BME280;65768;49.906;19.384;2022-12-29T08:04:42;98064.51;;;7.60;53.25
76815;BME280;65768;49.906;19.384;2022-12-29T08:07:10;98066.88;;;7.73;52.74
76815;BME280;65768;49.906;19.384;2022-12-29T08:09:38;98065.23;;;7.82;52.64
76815;BME280;65768;49.906;19.384;2022-12-29T08:12:09;98073.58;;;7.83;52.57
76815;BME280;65768;49.906;19.384;2022-12-29T08:14:37;98078.71;;;7.96;51.61
76815;BME280;65768;49.906;19.384;2022-12-29T08:17:06;98084.38;;;7.89;52.43
76815;BME280;65768;49.906;19.384;2022-12-29T08:19:33;98087.98;;;8.03;50.99
76815;BME280;65768;49.906;19.384;2022-12-29T08:22:02;98092.50;;;8.06;51.38
76815;BME280;65768;49.906;19.384;2022-12-29T08:24:30;98092.20;;;8.10;50.95
76815;BME280;65768;49.906;19.384;2022-12-29T08:26:58;98095.25;;;8.23;50.90
76815;BME280;65768;49.906;19.384;2022-12-29T08:29:26;98095.17;;;8.13;51.13
76815;BME280;65768;49.906;19.384;2022-12-29T08:31:54;98099.05;;;8.21;50.38
76815;BME280;65768;49.906;19.384;2022-12-29T08:34:22;98100.27;;;8.22;50.61
76815;BME280;65768;49.906;19.384;2022-12-29T08:36:50;98098.39;;;8.25;50.87
76815;BME280;65768;49.906;19.384;2022-12-29T08:39:18;98097.31;;;8.22;50.35
76815;BME280;65768;49.906;19.384;2022-12-29T08:41:46;98068.80;;;8.16;50.08
76815;BME280;65768;49.906;19.384;2022-12-29T08:44:15;98094.10;;;8.31;50.49
76815;BME280;65768;49.906;19.384;2022-12-29T08:46:43;98092.15;;;8.27;50.96
76815;BME280;65768;49.906;19.384;2022-12-29T08:49:11;98088.56;;;8.13;52.35
76815;BME280;65768;49.906;19.384;2022-12-29T08:51:40;98086.64;;;8.09;52.13
76815;BME280;65768;49.906;19.384;2022-12-29T08:54:08;98057.30;;;8.10;51.66
76815;BME280;65768;49.906;19.384;2022-12-29T08:56:36;98081.19;;;8.26;51.37
76815;BME280;65768;49.906;19.384;2022-12-29T08:59:05;98085.55;;;8.26;51.76
76815;BME280;65768;49.906;19.384;2022-12-29T09:01:33;98083.81;;;8.27;52.23
76815;BME280;65768;49.906;19.384;2022-12-29T09:04:04;98083.27;;;8.26;52.18
76815;BME280;65768;49.906;19.384;2022-12-29T09:06:32;98088.79;;;8.18;52.41
76815;BME280;65768;49.906;19.384;2022-12-29T09:09:01;98090.61;;;8.08;53.49
76815;BME280;65768;49.906;19.384;2022-12-29T09:11:29;98090.73;;;8.00;53.62
76815;BME280;65768;49.906;19.384;2022-12-29T09:13:57;98086.89;;;7.99;53.26
76815;BME280;65768;49.906;19.384;2022-12-29T09:16:25;98087.02;;;7.95;53.71
76815;BME280;65768;49.906;19.384;2022-12-29T09:18:54;98078.73;;;7.99;53.53
76815;BME280;65768;49.906;19.384;2022-12-29T09:21:23;98081.30;;;7.95;54.43
76815;BME280;65768;49.906;19.384;2022-12-29T09:23:51;98079.77;;;7.97;54.01
76815;BME280;65768;49.906;19.384;2022-12-29T09:26:19;98076.67;;;8.01;53.72
76815;BME280;65768;49.906;19.384;2022-12-29T09:28:47;98071.86;;;8.07;54.20
76815;BME280;65768;49.906;19.384;2022-12-29T09:31:15;98043.31;;;7.97;54.14
76815;BME280;65768;49.906;19.384;2022-12-29T09:33:44;98057.97;;;8.07;54.17
76815;BME280;65768;49.906;19.384;2022-12-29T09:36:12;98046.91;;;8.13;53.86
76815;BME280;65768;49.906;19.384;2022-12-29T09:38:40;98045.79;;;8.26;53.26
76815;BME280;65768;49.906;19.384;2022-12-29T09:41:29;98051.06;;;8.35;52.87
76815;BME280;65768;49.906;19.384;2022-12-29T09:44:07;98047.88;;;8.50;53.25
76815;BME280;65768;49.906;19.384;2022-12-29T09:46:44;98058.50;;;8.55;52.89
76815;BME280;65768;49.906;19.384;2022-12-29T09:52:23;98065.55;;;8.73;51.47
76815;BME280;65768;49.906;19.384;2022-12-29T09:55:00;98068.64;;;8.66;52.87
76815;BME280;65768;49.906;19.384;2022-12-29T09:57:45;98063.23;;;8.65;52.45
76815;BME280;65768;49.906;19.384;2022-12-29T10:00:20;98062.23;;;8.71;51.42
76815;BME280;65768;49.906;19.384;2022-12-29T10:02:59;98062.24;;;8.72;52.11
76815;BME280;65768;49.906;19.384;2022-12-29T10:05:42;98065.64;;;8.94;51.40
76815;BME280;65768;49.906;19.384;2022-12-29T10:20:15;98054.36;;;9.65;51.08
76815;BME280;65768;49.906;19.384;2022-12-29T10:25:37;98059.09;;;9.90;49.71
76815;BME280;65768;49.906;19.384;2022-12-29T10:28:23;98054.75;;;10.04;48.47
76815;BME280;65768;49.906;19.384;2022-12-29T10:30:53;98052.65;;;10.06;48.80
76815;BME280;65768;49.906;19.384;2022-12-29T10:33:25;98051.25;;;10.03;48.22
76815;BME280;65768;49.906;19.384;2022-12-29T10:35:58;98049.70;;;10.02;49.57
76815;BME280;65768;49.906;19.384;2022-12-29T10:41:20;98055.09;;;10.26;50.11
76815;BME280;65768;49.906;19.384;2022-12-29T10:43:53;98050.22;;;10.42;48.66
76815;BME280;65768;49.906;19.384;2022-12-29T10:46:25;98044.29;;;10.24;48.41
76815;BME280;65768;49.906;19.384;2022-12-29T10:48:57;98042.39;;;10.10;49.33
76815;BME280;65768;49.906;19.384;2022-12-29T10:51:36;98038.20;;;10.06;49.43
76815;BME280;65768;49.906;19.384;2022-12-29T10:54:11;98041.16;;;10.03;49.86
76815;BME280;65768;49.906;19.384;2022-12-29T10:56:50;98043.95;;;9.95;49.89
76815;BME280;65768;49.906;19.384;2022-12-29T10:59:29;98050.91;;;9.90;50.16
76815;BME280;65768;49.906;19.384;2022-12-29T11:07:26;98036.61;;;9.66;50.37
76815;BME280;65768;49.906;19.384;2022-12-29T11:09:54;98029.50;;;9.77;50.32
76815;BME280;65768;49.906;19.384;2022-12-29T11:12:30;98028.63;;;9.90;49.83
76815;BME280;65768;49.906;19.384;2022-12-29T11:17:48;98026.52;;;10.06;50.01
76815;BME280;65768;49.906;19.384;2022-12-29T11:20:37;98030.54;;;9.98;49.57
76815;BME280;65768;49.906;19.384;2022-12-29T11:23:23;98031.42;;;9.91;50.17
76815;BME280;65768;49.906;19.384;2022-12-29T11:26:14;98034.90;;;9.90;49.84
76815;BME280;65768;49.906;19.384;2022-12-29T11:31:45;98033.48;;;9.76;51.85
76815;BME280;65768;49.906;19.384;2022-12-29T11:34:36;98031.59;;;9.70;52.35
76815;BME280;65768;49.906;19.384;2022-12-29T11:37:19;98032.96;;;9.60;52.92
76815;BME280;65768;49.906;19.384;2022-12-29T11:39:59;98033.83;;;9.49;52.55
76815;BME280;65768;49.906;19.384;2022-12-29T11:42:37;98035.20;;;9.50;53.25
76815;BME280;65768;49.906;19.384;2022-12-29T11:47:57;98034.86;;;9.49;53.01
76815;BME280;65768;49.906;19.384;2022-12-29T11:50:31;98027.21;;;9.54;53.43
76815;BME280;65768;49.906;19.384;2022-12-29T11:53:16;98025.81;;;9.52;52.91
76815;BME280;65768;49.906;19.384;2022-12-29T11:56:15;98022.16;;;9.51;53.74
76815;BME280;65768;49.906;19.384;2022-12-29T11:58:44;98023.03;;;9.52;53.80
76815;BME280;65768;49.906;19.384;2022-12-29T12:01:36;98021.99;;;9.57;53.93
76815;BME280;65768;49.906;19.384;2022-12-29T12:04:11;98020.44;;;9.62;53.54
76815;BME280;65768;49.906;19.384;2022-12-29T18:38:28;98045.02;;;6.24;64.46
76815;BME280;65768;49.906;19.384;2022-12-29T18:40:56;98046.67;;;6.32;64.11
76815;BME280;65768;49.906;19.384;2022-12-29T18:43:24;98042.23;;;6.35;64.06
76815;BME280;65768;49.906;19.384;2022-12-29T18:45:50;98040.40;;;6.40;63.81
76815;BME280;65768;49.906;19.384;2022-12-29T18:48:18;98032.33;;;6.58;62.94
76815;BME280;65768;49.906;19.384;2022-12-29T18:50:47;98031.03;;;6.65;62.70
76815;BME280;65768;49.906;19.384;2022-12-29T18:53:21;98032.33;;;6.71;62.63
76815;BME280;65768;49.906;19.384;2022-12-29T18:55:50;98029.77;;;6.74;62.48
76815;BME280;65768;49.906;19.384;2022-12-29T18:58:17;98029.69;;;6.83;62.13
76815;BME280;65768;49.906;19.384;2022-12-29T19:00:45;98026.85;;;6.91;61.93
76815;BME280;65768;49.906;19.384;2022-12-29T19:03:13;98021.13;;;6.91;61.84
76815;BME280;65768;49.906;19.384;2022-12-29T19:05:43;98015.27;;;6.94;61.70
76815;BME280;65768;49.906;19.384;2022-12-29T19:08:11;98010.64;;;6.98;61.45
76815;BME280;65768;49.906;19.384;2022-12-29T19:10:39;98005.91;;;6.93;61.82
76815;BME280;65768;49.906;19.384;2022-12-29T19:13:14;97997.00;;;6.87;61.84
76815;BME280;65768;49.906;19.384;2022-12-29T19:15:42;97997.95;;;6.81;62.11
76815;BME280;65768;49.906;19.384;2022-12-29T19:18:13;98001.82;;;6.85;61.70
76815;BME280;65768;49.906;19.384;2022-12-29T19:20:42;97991.71;;;6.80;61.81
76815;BME280;65768;49.906;19.384;2022-12-29T19:23:12;97999.44;;;6.73;62.21
76815;BME280;65768;49.906;19.384;2022-12-29T19:25:40;98006.84;;;6.70;62.02
76815;BME280;65768;49.906;19.384;2022-12-29T19:28:15;98004.38;;;6.66;62.09
76815;BME280;65768;49.906;19.384;2022-12-29T19:30:43;98018.02;;;6.78;61.71
76815;BME280;65768;49.906;19.384;2022-12-29T19:33:10;98025.58;;;6.86;61.57
76815;BME280;65768;49.906;19.384;2022-12-29T19:35:37;98031.22;;;6.94;61.39
76815;BME280;65768;49.906;19.384;2022-12-29T19:38:10;98038.09;;;6.89;61.36
76815;BME280;65768;49.906;19.384;2022-12-29T19:40:40;98040.84;;;6.88;61.32
76815;BME280;65768;49.906;19.384;2022-12-29T19:43:09;98049.51;;;6.88;60.75
76815;BME280;65768;49.906;19.384;2022-12-29T19:45:42;98056.65;;;6.92;60.93
76815;BME280;65768;49.906;19.384;2022-12-29T19:48:15;98065.55;;;6.97;60.72
76815;BME280;65768;49.906;19.384;2022-12-29T19:50:42;98071.38;;;6.92;61.27
76815;BME280;65768;49.906;19.384;2022-12-29T19:53:12;98067.40;;;7.22;59.16
76815;BME280;65768;49.906;19.384;2022-12-29T19:55:44;98065.38;;;7.60;58.24
76815;BME280;65768;49.906;19.384;2022-12-29T19:58:11;98067.48;;;7.63;58.04
76815;BME280;65768;49.906;19.384;2022-12-29T20:00:45;98068.75;;;7.70;57.22
76815;BME280;65768;49.906;19.384;2022-12-29T20:03:12;98062.90;;;7.74;57.28
76815;BME280;65768;49.906;19.384;2022-12-29T20:05:40;98055.77;;;7.73;57.32
76815;BME280;65768;49.906;19.384;2022-12-29T20:08:07;98063.64;;;7.79;56.89
76815;BME280;65768;49.906;19.384;2022-12-29T20:10:35;98067.54;;;7.88;56.03
76815;BME280;65768;49.906;19.384;2022-12-29T20:13:02;98064.05;;;7.85;56.57
76815;BME280;65768;49.906;19.384;2022-12-29T20:15:30;98068.85;;;7.80;56.60
76815;BME280;65768;49.906;19.384;2022-12-29T20:17:57;98071.28;;;7.79;56.73
76815;BME280;65768;49.906;19.384;2022-12-29T20:20:23;98076.79;;;7.74;57.37
76815;BME280;65768;49.906;19.384;2022-12-29T20:22:50;98077.39;;;7.65;57.63
76815;BME280;65768;49.906;19.384;2022-12-29T20:25:17;98073.56;;;7.63;58.00
76815;BME280;65768;49.906;19.384;2022-12-29T20:27:44;98078.77;;;7.63;58.17
76815;BME280;65768;49.906;19.384;2022-12-29T20:30:11;98079.18;;;7.71;57.61
76815;BME280;65768;49.906;19.384;2022-12-29T20:32:38;98079.75;;;7.75;57.57
76815;BME280;65768;49.906;19.384;2022-12-29T20:35:05;98075.03;;;7.73;57.73
76815;BME280;65768;49.906;19.384;2022-12-29T20:37:32;98073.14;;;7.74;57.78
76815;BME280;65768;49.906;19.384;2022-12-29T20:39:59;98077.00;;;7.77;57.30
76815;BME280;65768;49.906;19.384;2022-12-29T20:42:26;98079.81;;;7.83;57.19
76815;BME280;65768;49.906;19.384;2022-12-29T20:44:53;98079.41;;;7.77;57.44
76815;BME280;65768;49.906;19.384;2022-12-29T20:47:19;98078.66;;;7.71;57.71
76815;BME280;65768;49.906;19.384;2022-12-29T20:49:46;98078.23;;;7.63;57.95
76815;BME280;65768;49.906;19.384;2022-12-29T20:52:13;98081.02;;;7.63;57.33
76815;BME280;65768;49.906;19.384;2022-12-29T20:54:40;98079.60;;;7.78;56.72